LGRX/GPA METAR and TAF weather

Enter ICAO airport designator
Station Type Date Time Source
LGRX METAR 2019/02/21 12:20 UTC NOAA

LGRX 211220Z 25004KT 9999 FEW025 17/07 Q1022


Station Type Date Time Source
LGRX Decoded METAR 2019/02/21 12:20 UTC NOAA

Araxos Airport , Greece (LGRX) 38-09N 021-25E 12M
Feb 21, 2019 - 07:20 AM EST / 2019.02.21 1220 UTC
Wind: from the WSW (250 degrees) at 5 MPH (4 KT):0
Visibility: greater than 7 mile(s):0
Sky conditions: mostly clear
Temperature: 62 F (17 C)
Dew Point: 44 F (7 C)
Relative Humidity: 51%
Pressure (altimeter): 30.18 in. Hg (1022 hPa)
ob: LGRX 211220Z 25004KT 9999 FEW025 17/07 Q1022
cycle: 12

Station Type Date Time Source
LGRX TAF 2017/09/23 18:36 UTC NOAA

TAF TAF LGRX 231700Z 2318/2406 33010KT 9999 FEW025
BECMG 2322/2324 VRB03KT


Example: see airport list